Time;durP1;ratioP1;P1;durP2;ratioP2;P2;SDS_P1;SDS_P2;PMS_P1;PMS_P2;Temp;Humidity;BMP_temperature;BMP_pressure;BME280_temperature;BME280_humidity;BME280_pressure;Samples;Min_cycle;Max_cycle;Signal;HPM_P1;HPM_P2
2020/12/24 00:00:14;;;;;;;15.18;9.53;;;;;;;-2.00;81.67;100894.27;1624095;88;21277;-78
2020/12/24 00:03:20;;;;;;;15.48;10.18;;;;;;;-2.02;81.78;100905.08;1622998;88;21340;-79
2020/12/24 00:06:27;;;;;;;15.25;10.68;;;;;;;-2.01;81.87;100907.28;1624152;88;21985;-78
2020/12/24 00:09:32;;;;;;;18.55;11.33;;;;;;;-1.99;81.97;100901.35;1623364;88;21293;-78
2020/12/24 00:12:38;;;;;;;17.37;10.58;;;;;;;-1.99;82.03;100898.67;1623568;88;21419;-78
2020/12/24 00:15:44;;;;;;;17.87;10.65;;;;;;;-2.03;82.14;100902.46;1624179;88;21856;-78
2020/12/24 00:18:50;;;;;;;17.52;10.70;;;;;;;-2.07;82.26;100901.30;1624213;88;21226;-79
2020/12/24 00:21:55;;;;;;;20.15;10.38;;;;;;;-2.05;82.43;100905.23;1610617;89;21257;-78
2020/12/24 00:25:01;;;;;;;19.92;11.65;;;;;;;-2.03;82.58;100897.96;1609738;89;21261;-79
2020/12/24 00:28:08;;;;;;;20.43;10.78;;;;;;;-2.03;82.54;100891.73;1610907;89;21383;-79
2020/12/24 00:31:15;;;;;;;17.80;11.28;;;;;;;-2.06;82.64;100876.70;1610818;89;21230;-79
2020/12/24 00:34:20;;;;;;;16.37;9.65;;;;;;;-2.10;82.76;100885.38;1593494;89;21891;-79
2020/12/24 00:37:26;;;;;;;21.05;10.45;;;;;;;-2.12;82.96;100881.02;1610251;88;21375;-79
2020/12/24 00:40:32;;;;;;;20.90;10.85;;;;;;;-2.12;82.95;100881.02;1610577;89;21356;-79
2020/12/24 00:43:38;;;;;;;18.00;10.93;;;;;;;-2.14;82.91;100885.62;1609769;89;21820;-78
2020/12/24 00:46:44;;;;;;;16.67;10.80;;;;;;;-2.18;83.01;100886.72;1610757;89;21274;-78
2020/12/24 00:49:51;;;;;;;19.95;11.70;;;;;;;-2.20;83.11;100881.93;1610841;89;21773;-78
2020/12/24 00:52:56;;;;;;;21.23;11.22;;;;;;;-2.23;83.21;100872.70;1610290;89;21873;-78
2020/12/24 00:56:02;;;;;;;20.50;11.53;;;;;;;-2.26;83.33;100879.55;1610818;89;21544;-78
2020/12/24 00:59:10;;;;;;;17.55;10.48;;;;;;;-2.28;83.37;100874.28;1610561;89;21395;-78
2020/12/24 01:02:15;;;;;;;20.00;10.60;;;;;;;-2.29;83.47;100863.66;1610826;89;21776;-79
2020/12/24 01:05:21;;;;;;;21.73;11.12;;;;;;;-2.29;83.53;100867.67;1610868;89;21351;-79
2020/12/24 01:08:27;;;;;;;19.73;10.75;;;;;;;-2.29;83.61;100860.50;1610829;89;21233;-79
2020/12/24 01:11:36;;;;;;;21.55;10.82;;;;;;;-2.30;83.62;100863.27;1610790;89;21290;-79
2020/12/24 01:14:43;;;;;;;18.85;11.57;;;;;;;-2.34;83.63;100850.50;1610431;89;21403;-79
2020/12/24 01:17:49;;;;;;;17.75;11.15;;;;;;;-2.35;83.71;100853.66;1609639;89;21237;-78
2020/12/24 01:20:54;;;;;;;20.55;11.25;;;;;;;-2.34;83.77;100856.72;1611074;88;21936;-79
2020/12/24 01:24:00;;;;;;;25.10;12.60;;;;;;;-2.29;83.87;100859.63;1623305;88;21329;-78
2020/12/24 01:27:07;;;;;;;25.50;14.87;;;;;;;-2.28;83.88;100864.04;1624274;88;21883;-79
2020/12/24 01:30:13;;;;;;;24.00;12.88;;;;;;;-2.29;83.97;100864.99;1623115;88;21899;-78
2020/12/24 01:33:19;;;;;;;20.55;12.25;;;;;;;-2.28;84.13;100858.68;1622739;88;21368;-78
2020/12/24 01:36:30;;;;;;;25.88;12.50;;;;;;;-2.27;84.12;100856.39;1624182;87;21230;-79
2020/12/24 01:39:36;;;;;;;24.07;14.23;;;;;;;-2.28;84.07;100853.32;1623233;88;21360;-78
2020/12/24 01:42:42;;;;;;;32.58;13.90;;;;;;;-2.29;84.02;100844.90;1624247;88;21345;-78
2020/12/24 01:45:48;;;;;;;24.43;13.25;;;;;;;-2.36;84.08;100857.25;1623521;88;21914;-78
2020/12/24 01:48:54;;;;;;;18.87;10.88;;;;;;;-2.40;84.18;100851.70;1624094;88;21272;-79
2020/12/24 01:52:04;;;;;;;23.12;12.75;;;;;;;-2.39;84.37;100851.22;1624082;88;21344;-78
2020/12/24 01:55:12;;;;;;;21.83;9.37;;;;;;;-2.36;84.26;100848.35;1624529;88;21300;-79
2020/12/24 01:58:17;;;;;;;19.05;11.57;;;;;;;-2.37;84.12;100846.63;1624480;88;21328;-79
2020/12/24 02:01:23;;;;;;;24.90;12.55;;;;;;;-2.36;83.96;100844.34;1623389;88;22016;-78
2020/12/24 02:04:29;;;;;;;23.85;12.30;;;;;;;-2.34;83.81;100849.16;1623230;88;21249;-79
2020/12/24 02:07:35;;;;;;;17.92;10.78;;;;;;;-2.37;83.48;100848.83;1623951;88;21329;-79
2020/12/24 02:10:41;;;;;;;18.27;10.48;;;;;;;-2.42;83.28;100846.87;1624082;88;21229;-78
2020/12/24 02:13:48;;;;;;;15.95;10.72;;;;;;;-2.45;83.28;100838.98;1623840;88;21413;-78
2020/12/24 02:16:54;;;;;;;14.23;9.28;;;;;;;-2.47;83.19;100839.55;1623696;88;21261;-78
2020/12/24 02:20:01;;;;;;;16.05;8.98;;;;;;;-2.54;83.07;100832.80;1624006;88;21230;-78
2020/12/24 02:23:07;;;;;;;14.80;8.63;;;;;;;-2.61;82.99;100837.59;1622683;88;21956;-78
2020/12/24 02:26:13;;;;;;;13.43;9.20;;;;;;;-2.68;83.01;100835.30;1624022;88;21225;-78
2020/12/24 02:29:20;;;;;;;13.48;7.80;;;;;;;-2.70;83.09;100837.20;1624143;88;21237;-78
2020/12/24 02:32:20;;;;;;;12.68;7.12;;;;;;;-2.69;83.14;100844.28;1623327;88;21364;-78
2020/12/24 02:35:26;;;;;;;13.65;7.28;;;;;;;-2.69;83.05;100841.61;1623028;88;21257;-78
2020/12/24 02:38:32;;;;;;;10.03;7.05;;;;;;;-2.69;83.04;100845.15;1622942;87;22060;-78
2020/12/24 02:41:38;;;;;;;9.80;5.83;;;;;;;-2.68;83.12;100840.20;1624204;88;21875;-78
2020/12/24 02:44:45;;;;;;;8.13;5.40;;;;;;;-2.67;82.96;100839.73;1623699;88;21337;-78
2020/12/24 02:47:52;;;;;;;9.55;4.87;;;;;;;-2.67;82.71;100845.09;1622996;88;21934;-79
2020/12/24 02:50:57;;;;;;;8.83;5.10;;;;;;;-2.70;82.66;100839.88;1624185;88;21270;-79
2020/12/24 02:54:04;;;;;;;8.03;4.80;;;;;;;-2.74;82.68;100844.52;1623952;88;21424;-78
2020/12/24 02:57:10;;;;;;;12.43;5.12;;;;;;;-2.76;82.79;100842.88;1624223;88;21764;-79
2020/12/24 03:00:19;;;;;;;6.37;4.22;;;;;;;-2.75;82.97;100847.29;1623383;88;21282;-79
2020/12/24 03:03:25;;;;;;;9.28;4.85;;;;;;;-2.75;83.06;100844.13;1624264;88;21324;-79
2020/12/24 03:06:31;;;;;;;9.30;4.92;;;;;;;-2.71;83.17;100838.16;1622759;88;21351;-79
2020/12/24 03:09:37;;;;;;;10.05;5.85;;;;;;;-2.71;83.25;100840.36;1623793;88;21400;-78
2020/12/24 03:12:43;;;;;;;12.93;5.90;;;;;;;-2.72;83.45;100844.46;1624016;88;21400;-78
2020/12/24 03:15:51;;;;;;;12.80;5.78;;;;;;;-2.74;83.66;100841.84;1622839;88;21281;-78
2020/12/24 03:18:56;;;;;;;13.22;5.58;;;;;;;-2.76;83.81;100843.75;1622725;88;21282;-79
2020/12/24 03:22:02;;;;;;;12.68;6.15;;;;;;;-2.77;83.95;100846.52;1624239;88;21381;-78
2020/12/24 03:25:07;;;;;;;10.90;6.05;;;;;;;-2.81;84.12;100840.92;1608714;88;21939;-79
2020/12/24 03:28:12;;;;;;;10.50;6.05;;;;;;;-2.84;84.24;100844.13;1608177;89;21221;-79
2020/12/24 03:31:18;;;;;;;10.70;5.90;;;;;;;-2.80;84.34;100848.00;1660449;86;21323;-78
2020/12/24 03:34:24;;;;;;;8.58;5.80;;;;;;;-2.78;84.37;100847.44;1660235;86;21998;-78
2020/12/24 03:37:31;;;;;;;13.58;5.70;;;;;;;-2.74;84.38;100850.35;1659696;85;21780;-78
2020/12/24 03:40:38;;;;;;;8.45;4.40;;;;;;;-2.73;84.32;100848.06;1658983;86;21224;-79
2020/12/24 03:43:44;;;;;;;12.43;5.55;;;;;;;-2.71;84.37;100846.19;1658945;86;21318;-79
2020/12/24 03:46:50;;;;;;;7.40;4.90;;;;;;;-2.67;84.37;100849.97;1660252;86;21888;-78
2020/12/24 03:49:55;;;;;;;8.85;5.15;;;;;;;-2.66;84.26;100843.66;1660298;86;21326;-78
2020/12/24 03:53:01;;;;;;;10.48;5.47;;;;;;;-2.65;84.22;100841.84;1659499;86;21390;-78
2020/12/24 03:56:06;;;;;;;9.10;5.67;;;;;;;-2.67;84.29;100848.62;1659413;86;21882;-78
2020/12/24 03:59:11;;;;;;;9.50;5.75;;;;;;;-2.66;84.41;100849.49;1660216;86;21318;-79
2020/12/24 04:02:18;;;;;;;12.65;6.22;;;;;;;-2.66;84.43;100854.85;1660405;86;21271;-79
2020/12/24 04:05:25;;;;;;;15.10;6.58;;;;;;;-2.66;84.44;100858.39;1658821;86;21455;-79
2020/12/24 04:08:32;;;;;;;10.50;5.80;;;;;;;-2.66;84.45;100853.52;1659530;86;21901;-79
2020/12/24 04:11:37;;;;;;;11.85;6.33;;;;;;;-2.65;84.55;100853.42;1660191;86;21326;-79
2020/12/24 04:14:44;;;;;;;8.95;5.87;;;;;;;-2.61;84.61;100854.14;1660263;86;21310;-79
2020/12/24 04:17:48;;;;;;;16.35;7.12;;;;;;;-2.61;84.59;100852.80;1641376;86;21849;-78
2020/12/24 04:20:57;;;;;;;12.05;5.85;;;;;;;-2.62;84.57;100845.72;1660175;86;21882;-79
2020/12/24 04:24:03;;;;;;;10.58;6.00;;;;;;;-2.62;84.59;100849.25;1659501;85;21330;-78
2020/12/24 04:27:10;;;;;;;13.00;7.45;;;;;;;-2.64;84.63;100852.95;1659331;86;21378;-78
2020/12/24 04:30:15;;;;;;;12.37;6.85;;;;;;;-2.66;84.61;100857.05;1614635;89;21837;-78
2020/12/24 04:33:21;;;;;;;12.10;7.08;;;;;;;-2.66;84.63;100861.06;1660787;86;21938;-78
2020/12/24 04:36:27;;;;;;;11.85;7.33;;;;;;;-2.68;84.71;100857.62;1613914;87;23048;-78
2020/12/24 04:39:32;;;;;;;12.58;7.53;;;;;;;-2.69;84.76;100861.69;1660726;86;21386;-78
2020/12/24 04:42:38;;;;;;;13.35;8.13;;;;;;;-2.71;84.81;100858.23;1614620;89;21315;-78
2020/12/24 04:45:45;;;;;;;15.68;8.60;;;;;;;-2.73;84.85;100858.33;1659445;86;21751;-79
2020/12/24 04:48:50;;;;;;;17.15;9.78;;;;;;;-2.73;85.01;100854.75;1614761;89;21223;-79
2020/12/24 04:51:57;;;;;;;18.67;8.78;;;;;;;-2.75;85.00;100853.98;1659392;86;21734;-78
2020/12/24 04:55:03;;;;;;;19.70;8.98;;;;;;;-2.76;85.14;100853.59;1614537;89;21401;-78
2020/12/24 04:58:10;;;;;;;16.75;8.73;;;;;;;-2.79;85.31;100861.30;1643054;86;21322;-78
2020/12/24 05:01:24;;;;;;;20.52;9.43;;;;;;;-2.83;85.57;100863.73;1613364;89;21336;-78
2020/12/24 05:04:29;;;;;;;21.50;9.65;;;;;;;-2.83;85.83;100863.73;1660729;86;21199;-79
2020/12/24 05:07:35;;;;;;;17.92;9.20;;;;;;;-2.85;85.97;100853.11;1613522;89;21954;-79
2020/12/24 05:10:44;;;;;;;17.23;7.95;;;;;;;-2.84;86.03;100852.16;1659529;86;21378;-78
2020/12/24 05:13:51;;;;;;;14.55;7.95;;;;;;;-2.84;86.05;100848.62;1613502;89;21298;-78
2020/12/24 05:17:14;;;;;;;20.10;8.70;;;;;;;-2.85;86.06;100847.75;1660016;86;21771;-79
2020/12/24 05:20:19;;;;;;;12.60;7.50;;;;;;;-2.84;86.10;100844.13;1613531;89;21254;-78
2020/12/24 05:23:28;;;;;;;13.22;6.33;;;;;;;-2.84;86.02;100844.60;1660721;86;21207;-78
2020/12/24 05:26:33;;;;;;;11.45;5.92;;;;;;;-2.83;85.92;100849.00;1641658;86;21653;-78
2020/12/24 05:29:38;;;;;;;12.13;6.00;;;;;;;-2.84;85.81;100850.82;1641134;86;21835;-78
2020/12/24 05:32:44;;;;;;;10.10;6.08;;;;;;;-2.85;85.74;100853.11;1660019;86;21319;-78
2020/12/24 05:35:51;;;;;;;10.88;6.28;;;;;;;-2.84;85.74;100849.95;1658917;86;21346;-78
2020/12/24 05:38:58;;;;;;;10.95;6.95;;;;;;;-2.85;85.65;100850.44;1659621;86;21264;-79
2020/12/24 05:42:05;;;;;;;12.53;7.37;;;;;;;-2.88;85.67;100843.88;1659378;86;21808;-78
2020/12/24 05:45:24;;;;;;;12.93;6.97;;;;;;;-2.86;85.74;100846.03;1625215;86;21323;-78
2020/12/24 05:48:29;;;;;;;14.95;6.87;;;;;;;-2.84;85.83;100845.94;1660259;86;21322;-78
2020/12/24 05:51:34;;;;;;;11.65;6.83;;;;;;;-2.83;85.91;100856.56;1660006;86;21208;-78
2020/12/24 05:54:41;;;;;;;11.00;6.95;;;;;;;-2.78;85.94;100852.31;1659630;86;21862;-78
2020/12/24 05:57:46;;;;;;;14.50;8.18;;;;;;;-2.72;85.93;100849.82;1659351;86;21374;-79
2020/12/24 06:00:53;;;;;;;12.70;8.23;;;;;;;-2.66;85.79;100852.17;1658987;86;21224;-79
2020/12/24 06:04:11;;;;;;;16.05;8.73;;;;;;;-2.66;85.54;100849.02;1658872;86;22589;-78
2020/12/24 06:07:16;;;;;;;16.93;9.18;;;;;;;-2.63;85.50;100848.01;1659751;86;21350;-78
2020/12/24 06:10:22;;;;;;;14.93;8.30;;;;;;;-2.61;85.32;100855.48;1687858;85;21843;-78
2020/12/24 06:13:27;;;;;;;13.15;7.80;;;;;;;-2.60;85.17;100859.41;1687233;84;21189;-77
2020/12/24 06:16:35;;;;;;;13.55;8.28;;;;;;;-2.61;85.10;100855.48;1678296;85;22111;-78
2020/12/24 06:19:45;;;;;;;16.87;9.40;;;;;;;-2.62;85.10;100859.11;1689194;85;21359;-79
2020/12/24 06:22:50;;;;;;;;;;;;;;;-2.62;85.11;100849.73;1666059;86;21841;-80
2020/12/24 06:26:00;;;;;;;18.10;9.63;;;;;;;-2.62;85.16;100855.09;1685760;84;20241;-79
2020/12/24 06:29:10;;;;;;;17.60;9.83;;;;;;;-2.62;85.25;100848.39;1689157;85;21242;-79
2020/12/24 06:32:15;;;;;;;18.32;10.63;;;;;;;-2.62;85.29;100843.04;1666702;84;21212;-79
2020/12/24 06:35:45;;;;;;;14.18;9.35;;;;;;;-2.62;85.36;100853.27;1668622;85;21304;-79
2020/12/24 06:38:54;;;;;;;22.45;10.48;;;;;;;-2.61;85.43;100850.12;1687277;85;21366;-78
2020/12/24 06:41:59;;;;;;;19.75;10.48;;;;;;;-2.57;85.53;100846.34;1685786;85;21303;-78
2020/12/24 06:45:06;;;;;;;19.02;11.48;;;;;;;-2.53;85.54;100847.05;1684694;84;21932;-78
2020/12/24 06:48:25;;;;;;;22.30;11.10;;;;;;;-2.57;85.58;100852.56;1688209;83;21326;-79
2020/12/24 06:51:31;;;;;;;25.82;13.68;;;;;;;-2.59;85.73;100857.14;1678843;83;21269;-78
2020/12/24 06:54:41;;;;;;;22.67;12.75;;;;;;;-2.60;85.83;100855.86;1684605;83;21844;-78
2020/12/24 06:57:45;;;;;;;23.18;12.98;;;;;;;-2.63;85.95;100853.36;1688578;83;21363;-78
2020/12/24 07:00:53;;;;;;;20.75;11.43;;;;;;;-2.65;86.08;100846.73;1683508;84;21168;-78
2020/12/24 07:03:59;;;;;;;17.65;10.93;;;;;;;-2.65;86.20;100848.55;1684374;84;21198;-78
2020/12/24 07:07:06;;;;;;;20.88;12.15;;;;;;;-2.65;86.32;100841.38;1695702;84;21787;-78
2020/12/24 07:10:11;;;;;;;23.65;12.13;;;;;;;-2.60;86.40;100842.00;1692750;83;21914;-78
2020/12/24 07:13:18;;;;;;;22.42;12.35;;;;;;;-2.59;86.41;100835.72;1687780;83;21350;-77
2020/12/24 07:16:25;;;;;;;21.12;12.18;;;;;;;-2.59;86.46;100845.09;1685814;83;21207;-77
2020/12/24 07:19:32;;;;;;;18.45;10.75;;;;;;;-2.58;86.50;100846.81;1685712;85;21792;-78
2020/12/24 07:22:41;;;;;;;20.92;12.15;;;;;;;-2.58;86.51;100852.65;1684949;84;21856;-79
2020/12/24 07:25:47;;;;;;;17.85;10.75;;;;;;;-2.58;86.46;100862.03;1686439;83;21842;-79
2020/12/24 07:28:58;;;;;;;;;;;;;;;-2.55;86.58;100869.88;1669727;84;22601;-79
2020/12/24 07:32:04;;;;;;;19.92;11.08;;;;;;;-2.50;86.58;100861.61;1655192;84;20306;-80
2020/12/24 07:35:09;;;;;;;20.27;11.90;;;;;;;-2.50;86.60;100848.22;1674844;84;21852;-80
2020/12/24 07:38:15;;;;;;;19.67;11.83;;;;;;;-2.49;86.59;100848.16;1669776;84;21787;-81
2020/12/24 07:41:24;;;;;;;18.73;11.45;;;;;;;-2.50;86.64;100850.42;1643509;85;21326;-82
2020/12/24 07:44:29;;;;;;;24.15;11.60;;;;;;;-2.50;86.76;100839.70;1669603;85;21313;-80
2020/12/24 07:47:28;;;;;;;18.07;10.00;;;;;;;-2.49;86.83;100837.44;1671475;84;21335;-78
2020/12/24 07:50:38;;;;;;;18.90;11.88;;;;;;;-2.51;86.82;100847.35;1671089;85;22530;-79
2020/12/24 07:53:43;;;;;;;18.98;9.88;;;;;;;-2.55;86.92;100848.45;1674096;85;21328;-78
2020/12/24 07:56:52;;;;;;;21.50;11.57;;;;;;;-2.57;87.07;100846.34;1670460;85;21297;-79
2020/12/24 08:00:07;;;;;;;22.37;13.32;;;;;;;-2.54;87.29;100847.53;1672188;85;21388;-78
2020/12/24 08:03:13;;;;;;;20.70;11.15;;;;;;;-2.47;87.43;100850.27;1672909;84;21265;-78
2020/12/24 08:06:19;;;;;;;21.42;11.20;;;;;;;-2.44;87.44;100844.77;1673049;84;21214;-78
2020/12/24 08:09:25;;;;;;;22.05;12.25;;;;;;;-2.45;87.39;100834.10;1656418;85;21326;-78
2020/12/24 08:12:37;;;;;;;22.87;12.10;;;;;;;-2.46;87.41;100829.70;1655306;86;21339;-79
2020/12/24 08:15:51;;;;;;;19.32;10.98;;;;;;;-2.51;87.51;100832.62;1674272;85;21340;-78
2020/12/24 08:18:57;;;;;;;22.95;11.48;;;;;;;-2.48;87.65;100825.77;1669820;85;21947;-78
2020/12/24 08:22:14;;;;;;;21.20;11.85;;;;;;;-2.45;87.75;100831.42;1672013;85;21855;-79
2020/12/24 08:25:26;;;;;;;31.12;13.60;;;;;;;-2.42;87.86;100834.81;1673026;84;21360;-78
2020/12/24 08:28:34;;;;;;;29.42;12.63;;;;;;;-2.35;88.03;100840.26;1673282;85;21334;-79
2020/12/24 08:31:42;;;;;;;20.27;10.90;;;;;;;-2.34;87.84;100829.06;1683928;84;21998;-78
2020/12/24 08:34:51;;;;;;;23.18;12.65;;;;;;;-2.40;87.60;100824.00;1686372;84;21342;-77
2020/12/24 08:37:56;;;;;;;23.83;10.85;;;;;;;-2.43;87.52;100822.84;1685108;83;22606;-78
2020/12/24 08:41:03;;;;;;;22.90;10.70;;;;;;;-2.43;87.54;100821.03;1685567;84;21677;-78
2020/12/24 08:44:13;;;;;;;20.10;10.03;;;;;;;-2.41;87.55;100820.46;1684677;83;21265;-79
2020/12/24 08:47:18;;;;;;;23.77;11.03;;;;;;;-2.37;87.52;100818.02;1686039;84;21337;-80
2020/12/24 08:50:44;;;;;;;26.23;12.93;;;;;;;-2.31;87.54;100820.84;1685157;85;21663;-77
2020/12/24 08:53:50;;;;;;;23.05;11.05;;;;;;;-2.28;87.51;100816.66;1687108;85;21372;-79
2020/12/24 08:56:57;;;;;;;21.80;10.28;;;;;;;-2.29;87.50;100815.42;1684545;85;21318;-81
2020/12/24 09:00:07;;;;;;;20.15;10.72;;;;;;;-2.34;87.48;100806.28;1690776;83;21759;-79
2020/12/24 09:03:32;;;;;;;22.37;11.50;;;;;;;-2.35;87.62;100816.63;1695455;83;21295;-80
2020/12/24 09:06:47;;;;;;;19.67;11.03;;;;;;;-2.24;88.06;100819.58;1689203;83;21177;-80
2020/12/24 09:09:53;;;;;;;27.75;12.82;;;;;;;-2.14;88.00;100807.88;1684128;83;21255;-81
2020/12/24 09:13:06;;;;;;;20.52;11.45;;;;;;;-2.10;87.83;100804.09;1687455;83;21329;-82
2020/12/24 09:16:18;;;;;;;24.40;11.35;;;;;;;-2.07;87.70;100799.44;1686679;84;21287;-82
2020/12/24 09:19:25;;;;;;;21.15;10.50;;;;;;;-2.10;87.54;100805.44;1693360;83;21677;-82
2020/12/24 09:22:31;;;;;;;23.45;11.63;;;;;;;-2.10;87.64;100796.91;1693823;83;22399;-81
2020/12/24 09:25:41;;;;;;;32.45;15.68;;;;;;;-2.10;87.75;100791.55;1689990;83;21207;-79
2020/12/24 09:28:47;;;;;;;21.35;9.95;;;;;;;-2.14;87.74;100783.28;1689607;83;21326;-78
2020/12/24 09:32:05;;;;;;;34.98;15.10;;;;;;;-2.16;87.91;100789.69;1677104;84;21898;-78
2020/12/24 09:35:14;;;;;;;22.50;11.00;;;;;;;-2.18;88.11;100789.75;1688498;85;21241;-81
2020/12/24 09:38:20;;;;;;;23.83;10.82;;;;;;;-2.17;88.35;100788.80;1691434;83;21276;-81
2020/12/24 09:41:25;;;;;;;23.27;10.60;;;;;;;-2.14;88.55;100793.14;1688173;83;21981;-82
2020/12/24 09:44:31;;;;;;;26.55;12.43;;;;;;;-2.09;88.79;100789.73;1693378;83;21302;-80
2020/12/24 09:47:37;;;;;;;36.38;15.98;;;;;;;-2.06;88.94;100788.23;1690657;83;21359;-83
2020/12/24 09:50:43;;;;;;;33.20;13.35;;;;;;;-2.07;89.02;100778.44;1693145;83;21303;-80
2020/12/24 09:53:52;;;;;;;25.50;11.40;;;;;;;-2.09;89.21;100776.33;1689540;83;21263;-81
2020/12/24 09:56:59;;;;;;;23.45;11.22;;;;;;;-2.10;89.45;100780.83;1689499;83;21610;-80
2020/12/24 10:00:04;;;;;;;27.62;13.48;;;;;;;-2.09;89.73;100787.05;1667564;83;21228;-80
2020/12/24 10:03:11;;;;;;;28.02;13.13;;;;;;;-2.08;89.99;100783.41;1690019;83;22666;-79
2020/12/24 10:06:16;;;;;;;31.12;11.88;;;;;;;-2.05;90.22;100776.55;1698095;83;21382;-79
2020/12/24 10:09:26;;;;;;;25.15;12.35;;;;;;;-2.02;90.43;100768.36;1697382;83;21351;-79
2020/12/24 10:12:33;;;;;;;30.70;13.80;;;;;;;-2.00;90.58;100767.78;1695184;83;21746;-77
2020/12/24 10:15:39;;;;;;;36.25;14.07;;;;;;;-2.03;90.77;100771.95;1696885;83;21750;-78
2020/12/24 10:18:46;;;;;;;32.93;13.48;;;;;;;-2.08;91.02;100767.33;1687307;83;21616;-78
2020/12/24 10:21:51;;;;;;;24.52;12.05;;;;;;;-2.10;91.28;100761.20;1690048;83;21340;-77
2020/12/24 10:24:58;;;;;;;24.32;10.78;;;;;;;-2.11;91.50;100758.14;1685723;83;21280;-77
2020/12/24 10:28:02;;;;;;;20.62;10.80;;;;;;;-2.12;91.68;100755.05;1687254;83;21269;-77
2020/12/24 10:31:09;;;;;;;27.15;11.80;;;;;;;-2.10;91.78;100757.19;1695321;83;21732;-77
2020/12/24 10:34:14;;;;;;;33.48;14.35;;;;;;;-2.08;91.84;100753.45;1674221;83;21332;-78
2020/12/24 10:37:21;;;;;;;26.52;11.18;;;;;;;-2.05;91.88;100747.06;1691819;83;21205;-78
2020/12/24 10:40:27;;;;;;;17.12;10.03;;;;;;;-2.04;91.85;100748.79;1689672;83;21360;-78
2020/12/24 10:43:33;;;;;;;19.00;9.45;;;;;;;-2.02;91.82;100753.61;1699034;83;21169;-78
2020/12/24 10:46:39;;;;;;;15.60;9.05;;;;;;;-1.99;91.82;100740.02;1690292;83;21193;-79
2020/12/24 10:49:45;;;;;;;17.05;9.90;;;;;;;-1.95;91.76;100745.59;1664717;86;21310;-78
2020/12/24 10:52:50;;;;;;;15.93;8.95;;;;;;;-1.93;91.75;100737.01;1667571;84;21392;-78
2020/12/24 10:55:58;;;;;;;14.85;9.10;;;;;;;-1.91;91.74;100729.73;1683256;84;21169;-78
2020/12/24 10:59:04;;;;;;;16.60;9.98;;;;;;;-1.85;91.82;100735.22;1686025;85;21292;-78
2020/12/24 11:02:10;;;;;;;15.58;9.18;;;;;;;-1.81;91.90;100732.27;1663951;86;21357;-79
2020/12/24 11:05:16;;;;;;;21.85;10.58;;;;;;;-1.81;91.96;100724.23;1686432;85;21182;-79
2020/12/24 11:08:24;;;;;;;20.40;10.00;;;;;;;-1.83;92.04;100715.42;1700098;83;21519;-79
2020/12/24 11:11:30;;;;;;;17.40;8.53;;;;;;;-1.82;92.20;100711.78;1681645;85;21273;-79
2020/12/24 11:14:37;;;;;;;17.27;9.68;;;;;;;-1.78;92.37;100720.52;1688432;85;21284;-78
2020/12/24 11:17:44;;;;;;;16.15;10.45;;;;;;;-1.76;92.49;100721.77;1658202;86;21282;-78
2020/12/24 11:20:50;;;;;;;17.52;11.35;;;;;;;-1.72;92.60;100721.98;1686986;83;22516;-78
2020/12/24 11:23:56;;;;;;;18.42;11.18;;;;;;;-1.66;92.73;100723.82;1688475;85;21919;-78
2020/12/24 11:27:02;;;;;;;16.93;9.13;;;;;;;-1.61;92.82;100715.51;1687370;83;21702;-78
2020/12/24 11:30:07;;;;;;;22.20;10.78;;;;;;;-1.56;92.88;100708.05;1669588;84;22782;-78
2020/12/24 11:33:13;;;;;;;19.10;10.90;;;;;;;-1.53;92.90;100715.08;1663162;83;21321;-77
2020/12/24 11:36:20;;;;;;;19.65;10.72;;;;;;;-1.54;92.93;100702.14;1662564;86;21183;-78
2020/12/24 11:39:26;;;;;;;21.57;11.88;;;;;;;-1.55;92.98;100700.42;1665353;86;21311;-78
2020/12/24 11:42:33;;;;;;;17.02;9.95;;;;;;;-1.54;93.15;100692.75;1664170;86;21183;-78
2020/12/24 11:45:40;;;;;;;16.85;10.10;;;;;;;-1.56;93.37;100682.56;1653716;87;21200;-79
2020/12/24 11:48:49;;;;;;;16.60;10.68;;;;;;;-1.55;93.63;100681.64;1663665;86;21175;-79
2020/12/24 11:51:55;;;;;;;17.35;11.22;;;;;;;-1.51;93.85;100689.87;1650772;87;21248;-78
2020/12/24 11:55:02;;;;;;;20.97;12.00;;;;;;;-1.46;94.08;100678.86;1651255;86;21225;-78
2020/12/24 11:58:09;;;;;;;19.40;11.73;;;;;;;-1.47;94.28;100671.30;1653575;87;21317;-78
2020/12/24 12:01:30;;;;;;;22.90;12.07;;;;;;;-1.46;94.45;100674.84;1653499;86;21184;-78
2020/12/24 12:04:36;;;;;;;20.12;10.88;;;;;;;-1.43;94.62;100665.28;1637265;86;21342;-78
2020/12/24 12:07:42;;;;;;;20.48;10.90;;;;;;;-1.40;94.78;100667.31;1641938;86;21186;-79
2020/12/24 12:10:50;;;;;;;15.05;10.10;;;;;;;-1.39;94.90;100666.34;1619123;87;21354;-79
2020/12/24 12:13:55;;;;;;;17.48;10.50;;;;;;;-1.39;94.98;100669.51;1637175;87;21327;-78
2020/12/24 12:17:04;;;;;;;16.23;10.63;;;;;;;-1.35;95.08;100672.41;1650753;85;21328;-78
2020/12/24 12:20:10;;;;;;;15.23;9.83;;;;;;;-1.33;95.13;100678.05;1624420;88;21367;-78
2020/12/24 12:23:18;;;;;;;14.75;9.48;;;;;;;-1.30;95.17;100673.84;1664607;86;21345;-79
2020/12/24 12:26:25;;;;;;;16.10;10.07;;;;;;;-1.26;95.19;100677.70;1675192;85;21242;-80
2020/12/24 12:29:31;;;;;;;19.32;9.98;;;;;;;-1.22;95.19;100664.45;1645503;87;21376;-79
2020/12/24 12:32:38;;;;;;;16.40;9.30;;;;;;;-1.18;95.15;100668.69;1645027;87;21239;-79
2020/12/24 12:35:43;;;;;;;20.02;9.48;;;;;;;-1.13;95.08;100659.88;1661262;86;21805;-79
2020/12/24 12:38:50;;;;;;;15.32;9.90;;;;;;;-1.09;94.92;100673.50;1694690;84;21330;-79
2020/12/24 12:41:56;;;;;;;14.18;9.95;;;;;;;-1.04;94.78;100682.14;1715705;83;21881;-79
2020/12/24 12:45:02;;;;;;;15.50;9.75;;;;;;;-1.01;94.65;100676.59;1717464;83;21360;-78
2020/12/24 12:48:08;;;;;;;15.85;10.55;;;;;;;-0.97;94.49;100676.79;1717335;83;21257;-78
2020/12/24 12:51:16;;;;;;;16.60;11.22;;;;;;;-0.98;94.29;100673.73;1717689;83;21202;-79
2020/12/24 12:54:21;;;;;;;16.55;11.57;;;;;;;-0.98;94.16;100672.87;1697609;83;21198;-79
2020/12/24 12:57:30;;;;;;;22.70;12.68;;;;;;;-0.98;94.09;100665.67;1717417;83;21844;-79
2020/12/24 13:00:36;;;;;;;15.45;11.30;;;;;;;-1.02;94.05;100656.55;1718287;83;21960;-79
2020/12/24 13:03:41;;;;;;;22.52;12.50;;;;;;;-1.06;94.06;100657.22;1717097;83;21262;-78
2020/12/24 13:06:48;;;;;;;21.15;12.58;;;;;;;-1.06;94.09;100661.24;1718018;83;21833;-78
2020/12/24 13:09:55;;;;;;;23.47;14.00;;;;;;;-1.05;94.11;100658.94;1718274;83;21297;-78
2020/12/24 13:13:02;;;;;;;24.98;13.30;;;;;;;-1.02;94.09;100657.90;1717278;83;21312;-78
2020/12/24 13:16:07;;;;;;;23.00;13.35;;;;;;;-1.00;94.07;100651.45;1718285;83;21309;-80
2020/12/24 13:19:14;;;;;;;28.65;15.28;;;;;;;-0.96;94.06;100656.17;1718106;83;21273;-79
2020/12/24 13:22:20;;;;;;;26.57;14.35;;;;;;;-0.95;93.96;100649.35;1716825;83;21276;-78
2020/12/24 13:25:26;;;;;;;26.50;13.98;;;;;;;-0.94;93.87;100663.19;1703288;83;21199;-79
2020/12/24 13:28:31;;;;;;;27.45;15.18;;;;;;;-0.92;93.77;100667.97;1688465;85;21342;-79
2020/12/24 13:31:37;;;;;;;28.67;15.10;;;;;;;-0.89;93.69;100669.14;1689436;85;21251;-79
2020/12/24 13:34:43;;;;;;;28.92;16.17;;;;;;;-0.85;93.55;100672.02;1689207;84;21335;-79
2020/12/24 13:37:49;;;;;;;31.23;15.55;;;;;;;-0.83;93.42;100657.14;1688471;83;21240;-79
2020/12/24 13:40:53;;;;;;;36.93;17.35;;;;;;;-0.79;93.31;100656.86;1689141;85;21179;-79
2020/12/24 13:44:00;;;;;;;31.75;16.90;;;;;;;-0.77;93.14;100649.55;1716399;83;21287;-79
2020/12/24 13:47:05;;;;;;;38.70;17.67;;;;;;;-0.77;92.99;100653.58;1718307;83;21840;-79
2020/12/24 13:50:11;;;;;;;36.45;16.62;;;;;;;-0.74;92.85;100653.89;1716823;83;21289;-79
2020/12/24 13:53:17;;;;;;;39.38;17.10;;;;;;;-0.74;92.74;100646.31;1717845;83;21281;-79
2020/12/24 13:56:24;;;;;;;39.83;18.17;;;;;;;-0.72;92.69;100640.34;1718220;83;21182;-79
2020/12/24 13:59:29;;;;;;;40.28;18.10;;;;;;;-0.75;92.69;100640.08;1718249;83;21349;-78
2020/12/24 14:02:34;;;;;;;40.00;18.50;;;;;;;-0.74;92.70;100639.59;1717083;83;21804;-78
2020/12/24 14:05:40;;;;;;;43.83;19.50;;;;;;;-0.73;92.70;100644.00;1718230;83;21672;-78
2020/12/24 14:08:46;;;;;;;40.78;17.25;;;;;;;-0.77;92.70;100641.50;1716883;83;21182;-78
2020/12/24 14:11:55;;;;;;;40.40;16.62;;;;;;;-0.79;92.70;100644.77;1717064;83;21190;-78
2020/12/24 14:15:01;;;;;;;37.55;14.98;;;;;;;-0.80;92.69;100643.05;1717386;83;21187;-78